Time;durP1;ratioP1;P1;durP2;ratioP2;P2;SDS_P1;SDS_P2;PMS_P1;PMS_P2;Temp;Humidity;BMP_temperature;BMP_pressure;BME280_temperature;BME280_humidity;BME280_pressure;Samples;Min_cycle;Max_cycle;Signal;HPM_P1;HPM_P2
2024/03/02 00:02:14;;;;;;;14.43;11.40;;;;;;;;;;5033100;28;20767;-64
2024/03/02 00:04:41;;;;;;;13.00;11.60;;;;;;;;;;5026274;28;20281;-64
2024/03/02 00:07:09;;;;;;;14.83;12.47;;;;;;;;;;5031249;28;20228;-64
2024/03/02 00:09:36;;;;;;;14.33;11.17;;;6.10;99.90;;;;;;5023486;28;20274;-64
2024/03/02 00:12:04;;;;;;;18.57;12.57;;;;;;;;;;5028901;28;20291;-65
2024/03/02 00:14:31;;;;;;;14.17;12.13;;;;;;;;;;5031562;28;20600;-62
2024/03/02 00:17:00;;;;;;;15.87;11.67;;;;;;;;;;5034712;28;20279;-63
2024/03/02 00:19:27;;;;;;;13.50;11.33;;;6.80;99.90;;;;;;5028624;28;20576;-63
2024/03/02 00:21:54;;;;;;;13.87;10.93;;;6.20;99.90;;;;;;5040646;28;20673;-63
2024/03/02 00:24:25;;;;;;;16.23;11.77;;;6.30;99.90;;;;;;5025483;28;20204;-63
2024/03/02 00:26:52;;;;;;;12.93;11.17;;;6.80;99.90;;;;;;5034048;28;20203;-63
2024/03/02 00:29:21;;;;;;;14.87;12.03;;;;;;;;;;5024517;28;20268;-63
2024/03/02 00:31:48;;;;;;;15.90;11.07;;;;;;;;;;5033919;28;20214;-62
2024/03/02 00:34:18;;;;;;;14.17;11.33;;;;;;;;;;5025113;28;20232;-63
2024/03/02 00:36:46;;;;;;;18.17;12.37;;;;;;;;;;5026298;28;20255;-63
2024/03/02 00:39:14;;;;;;;16.23;11.53;;;;;;;;;;5038532;28;20291;-62
2024/03/02 00:41:43;;;;;;;14.93;11.73;;;;;;;;;;5025513;28;20283;-64
2024/03/02 00:44:11;;;;;;;12.10;10.27;;;;;;;;;;5031467;28;20206;-63
2024/03/02 00:46:39;;;;;;;12.43;9.63;;;;;;;;;;5030181;28;20271;-64
2024/03/02 00:49:07;;;;;;;11.53;9.43;;;;;;;;;;5025260;28;20238;-63
2024/03/02 00:51:36;;;;;;;15.60;10.27;;;;;;;;;;5031023;28;20289;-63
2024/03/02 00:54:05;;;;;;;11.73;9.27;;;6.40;99.90;;;;;;5033892;28;20634;-62
2024/03/02 00:56:33;;;;;;;13.83;8.93;;;6.30;99.90;;;;;;5035931;28;20236;-63
2024/03/02 00:59:00;;;;;;;16.63;9.83;;;6.40;99.90;;;;;;5021086;28;20783;-63
2024/03/02 01:01:27;;;;;;;10.27;9.00;;;;;;;;;;5030114;28;20205;-63
2024/03/02 01:03:55;;;;;;;14.83;10.03;;;;;;;;;;5028226;28;20203;-63
2024/03/02 01:06:23;;;;;;;10.20;8.03;;;;;;;;;;5025280;28;20198;-63
2024/03/02 01:08:51;;;;;;;10.83;8.90;;;;;;;;;;5025737;28;20283;-63
2024/03/02 01:11:19;;;;;;;11.03;8.53;;;;;;;;;;5019426;28;20760;-63
2024/03/02 01:13:47;;;;;;;14.03;9.00;;;;;;;;;;5023426;28;20248;-63
2024/03/02 01:16:15;;;;;;;9.83;8.77;;;;;;;;;;5030877;28;20208;-63
2024/03/02 01:18:42;;;;;;;15.40;9.53;;;6.30;99.90;;;;;;5030145;28;20217;-63
2024/03/02 01:21:09;;;;;;;12.10;9.77;;;6.40;99.90;;;;;;5027391;28;20210;-63
2024/03/02 01:23:36;;;;;;;10.03;9.03;;;6.40;99.90;;;;;;5022467;28;20249;-63
2024/03/02 01:26:05;;;;;;;9.33;8.37;;;6.40;99.90;;;;;;5033776;28;20207;-63
2024/03/02 01:28:32;;;;;;;11.33;9.33;;;6.30;99.90;;;;;;5044746;28;20234;-63
2024/03/02 01:30:59;;;;;;;11.23;8.97;;;;;;;;;;5032846;28;20257;-63
2024/03/02 01:33:27;;;;;;;9.43;8.53;;;;;;;;;;5029246;28;20258;-63
2024/03/02 01:35:54;;;;;;;12.00;8.47;;;;;;;;;;5030591;28;20253;-63
2024/03/02 01:38:21;;;;;;;9.97;8.50;;;6.20;99.90;;;;;;5044560;28;20232;-63
2024/03/02 01:40:48;;;;;;;9.77;7.77;;;6.40;99.90;;;;;;5021429;28;20204;-63
2024/03/02 01:43:17;;;;;;;13.07;9.43;;;6.30;99.90;;;;;;5036609;28;20255;-63
2024/03/02 01:45:44;;;;;;;12.30;9.37;;;6.30;99.90;;;;;;5028269;28;20228;-63
2024/03/02 01:48:11;;;;;;;10.23;7.93;;;6.40;99.90;;;;;;5028730;28;20230;-63
2024/03/02 01:50:38;;;;;;;9.97;8.93;;;6.30;99.90;;;;;;5022047;28;20196;-63
2024/03/02 01:53:05;;;;;;;12.90;10.80;;;6.30;99.90;;;;;;5025401;28;20216;-63
2024/03/02 01:55:33;;;;;;;12.63;10.63;;;6.20;99.90;;;;;;5022496;28;20268;-63
2024/03/02 01:58:00;;;;;;;11.60;9.50;;;6.30;99.90;;;;;;5017613;28;20201;-63
2024/03/02 02:00:28;;;;;;;11.70;9.73;;;6.10;99.90;;;;;;5022111;28;20201;-63
2024/03/02 02:02:55;;;;;;;13.07;11.33;;;6.20;99.90;;;;;;5038669;28;20226;-63
2024/03/02 02:05:22;;;;;;;14.33;11.17;;;6.20;99.90;;;;;;5031573;28;20624;-63
2024/03/02 02:07:49;;;;;;;13.40;10.93;;;6.20;99.90;;;;;;5019657;28;20227;-63
2024/03/02 02:10:17;;;;;;;14.40;11.70;;;;;;;;;;5020715;28;20292;-63
2024/03/02 02:12:44;;;;;;;15.23;11.67;;;;;;;;;;5024939;28;20229;-63
2024/03/02 02:15:29;;;;;;;13.23;11.43;;;;;;;;;;5028824;28;20211;-63
2024/03/02 02:17:56;;;;;;;14.83;13.27;;;;;;;;;;5027390;28;20196;-63
2024/03/02 02:20:24;;;;;;;12.27;10.90;;;;;;;;;;5031700;28;20211;-63
2024/03/02 02:22:57;;;;;;;15.50;11.80;;;;;;;;;;5030495;28;20624;-63
2024/03/02 02:25:23;;;;;;;13.50;10.67;;;6.00;99.90;;;;;;5028958;28;20639;-63
2024/03/02 02:27:51;;;;;;;13.73;11.07;;;;;;;;;;5031428;28;20925;-63
2024/03/02 02:30:20;;;;;;;13.57;10.57;;;;;;;;;;5031828;28;20204;-63
2024/03/02 02:32:48;;;;;;;12.73;10.57;;;;;;;;;;5031397;28;20292;-63
2024/03/02 02:35:15;;;;;;;12.20;10.50;;;;;;;;;;5029873;28;20565;-63
2024/03/02 02:37:43;;;;;;;13.90;10.20;;;;;;;;;;5030166;28;20208;-63
2024/03/02 02:40:12;;;;;;;11.70;10.50;;;;;;;;;;5029946;28;20722;-63
2024/03/02 02:42:42;;;;;;;12.87;11.07;;;;;;;;;;5031386;28;20214;-63
2024/03/02 02:45:10;;;;;;;13.27;9.60;;;;;;;;;;5021667;28;20216;-63
2024/03/02 02:47:41;;;;;;;13.87;10.23;;;;;;;;;;5009179;28;20211;-63
2024/03/02 02:50:09;;;;;;;12.50;10.03;;;;;;;;;;5018749;28;20650;-63
2024/03/02 02:52:40;;;;;;;10.83;9.13;;;;;;;;;;5033797;28;20198;-63
2024/03/02 02:55:08;;;;;;;23.57;11.87;;;;;;;;;;5020171;28;20224;-63
2024/03/02 02:57:41;;;;;;;11.20;10.03;;;;;;;;;;5029285;28;20615;-63
2024/03/02 03:00:13;;;;;;;11.83;9.70;;;;;;;;;;5022003;28;20318;-63
2024/03/02 03:02:41;;;;;;;10.97;9.83;;;6.30;99.90;;;;;;5021816;28;20327;-63
2024/03/02 03:05:09;;;;;;;11.13;10.03;;;6.30;99.90;;;;;;5022202;28;20207;-63
2024/03/02 03:07:40;;;;;;;12.40;9.70;;;6.30;99.90;;;;;;5041535;28;20280;-63
2024/03/02 03:10:08;;;;;;;10.13;8.83;;;;;;;;;;5029224;28;20232;-63
2024/03/02 03:12:40;;;;;;;11.20;9.93;;;6.20;99.90;;;;;;5026792;28;20214;-63
2024/03/02 03:15:08;;;;;;;10.13;9.13;;;;;;;;;;5022370;28;20230;-63
2024/03/02 03:17:38;;;;;;;9.90;8.90;;;;;;;;;;5032544;28;20668;-63
2024/03/02 03:20:09;;;;;;;10.50;8.83;;;;;;;;;;5023223;28;20672;-63
2024/03/02 03:22:36;;;;;;;8.63;7.83;;;6.10;99.90;;;;;;5023979;28;20203;-63
2024/03/02 03:25:04;;;;;;;9.37;8.37;;;6.20;99.90;;;;;;5021969;28;20208;-63
2024/03/02 03:27:35;;;;;;;9.17;8.27;;;;;;;;;;5046891;28;20204;-63
2024/03/02 03:30:05;;;;;;;10.57;7.93;;;6.10;99.90;;;;;;5023840;28;20314;-63
2024/03/02 03:32:36;;;;;;;9.53;8.57;;;;;;;;;;5021121;28;20205;-63
2024/03/02 03:35:04;;;;;;;9.93;8.83;;;;;;;;;;5030530;28;20203;-63
2024/03/02 03:37:35;;;;;;;7.90;7.13;;;;;;;;;;5031234;28;20651;-63
2024/03/02 03:40:07;;;;;;;8.90;7.77;;;;;;;;;;5023128;28;20231;-63
2024/03/02 03:42:34;;;;;;;8.87;7.83;;;6.00;99.90;;;;;;5039058;28;20236;-63
2024/03/02 03:45:01;;;;;;;9.17;8.00;;;6.00;99.90;;;;;;5022163;28;20202;-63
2024/03/02 03:47:29;;;;;;;11.73;8.43;;;6.10;99.90;;;;;;5029443;28;20212;-63
2024/03/02 03:49:56;;;;;;;9.73;8.60;;;;;;;;;;5030366;28;20274;-63
2024/03/02 03:52:23;;;;;;;9.47;8.57;;;;;;;;;;5031925;28;20196;-63
2024/03/02 03:54:51;;;;;;;9.83;8.80;;;;;;;;;;5018337;28;20205;-63
2024/03/02 03:57:18;;;;;;;10.30;8.93;;;;;;;;;;5035188;28;20211;-64
2024/03/02 03:59:46;;;;;;;8.93;8.03;;;;;;;;;;5022190;28;20286;-63
2024/03/02 04:02:13;;;;;;;8.77;7.87;;;;;;;;;;5030238;28;20207;-63
2024/03/02 04:04:43;;;;;;;10.43;9.30;;;;;;;;;;5030060;28;21072;-63
2024/03/02 04:07:10;;;;;;;12.17;8.87;;;;;;;;;;5030832;28;20251;-63
2024/03/02 04:09:38;;;;;;;10.30;9.20;;;;;;;;;;5030628;28;20232;-63
2024/03/02 04:12:05;;;;;;;9.13;8.27;;;;;;;;;;5030895;28;20207;-63
2024/03/02 04:14:33;;;;;;;10.87;9.80;;;;;;;;;;5029883;28;20696;-63
2024/03/02 04:17:00;;;;;;;10.60;9.50;;;;;;;;;;5031059;28;20210;-63
2024/03/02 04:19:27;;;;;;;11.03;9.50;;;;;;;;;;5022988;28;20228;-63
2024/03/02 04:21:56;;;;;;;10.10;9.07;;;;;;;;;;5030864;28;20263;-63
2024/03/02 04:24:23;;;;;;;10.33;9.27;;;;;;;;;;5033116;28;20259;-63
2024/03/02 04:26:50;;;;;;;9.70;8.70;;;;;;;;;;5030854;28;20212;-63
2024/03/02 04:29:17;;;;;;;10.40;9.30;;;;;;;;;;5030380;28;20270;-63
2024/03/02 04:31:44;;;;;;;11.03;8.80;;;;;;;;;;5030775;28;20249;-63
2024/03/02 04:34:12;;;;;;;9.40;8.43;;;;;;;;;;5030877;28;20209;-63
2024/03/02 04:36:39;;;;;;;9.23;8.23;;;;;;;;;;5029965;28;20216;-63
2024/03/02 04:39:09;;;;;;;9.27;8.33;;;;;;;;;;5030105;28;20362;-63
2024/03/02 04:41:37;;;;;;;13.27;8.73;;;;;;;;;;5028907;28;20212;-63
2024/03/02 04:44:04;;;;;;;10.57;9.57;;;;;;;;;;5030313;28;20208;-63
2024/03/02 04:46:31;;;;;;;9.33;8.40;;;;;;;;;;5030101;28;20208;-63
2024/03/02 04:48:58;;;;;;;11.03;8.93;;;;;;;;;;5034611;28;20276;-63
2024/03/02 04:51:25;;;;;;;13.03;10.80;;;;;;;;;;5034409;28;20209;-63
2024/03/02 04:53:53;;;;;;;11.63;10.33;;;;;;;;;;5032318;28;20208;-63
2024/03/02 04:56:39;;;;;;;12.57;9.73;;;;;;;;;;5031822;28;23213;-63
2024/03/02 04:59:07;;;;;;;15.17;11.00;;;;;;;;;;5032254;28;20778;-63
2024/03/02 05:01:34;;;;;;;12.90;11.23;;;;;;;;;;5033452;28;20201;-62
2024/03/02 05:04:01;;;;;;;14.07;11.17;;;;;;;;;;5034088;28;20263;-63
2024/03/02 05:06:29;;;;;;;15.67;10.87;;;;;;;;;;5032991;28;20634;-63
2024/03/02 05:08:57;;;;;;;13.10;11.43;;;;;;;;;;5034203;28;20485;-63
2024/03/02 05:14:10;;;;;;;16.67;11.77;;;;;;;;;;5032140;28;20210;-63
2024/03/02 05:16:38;;;;;;;13.47;10.00;;;;;;;;;;5032597;28;20335;-63
2024/03/02 05:19:07;;;;;;;15.10;11.87;;;;;;;;;;5033405;28;20259;-63
2024/03/02 05:21:33;;;;;;;13.97;10.87;;;;;;;;;;5033312;28;20279;-63
2024/03/02 05:24:00;;;;;;;13.47;10.90;;;5.20;99.90;;;;;;5033474;28;20199;-63
2024/03/02 05:26:28;;;;;;;13.93;10.63;;;5.40;99.90;;;;;;5032928;28;20209;-62
2024/03/02 05:28:55;;;;;;;15.07;10.53;;;5.40;99.90;;;;;;5033759;28;20317;-63
2024/03/02 05:31:22;;;;;;;14.93;10.87;;;5.40;99.90;;;;;;5026267;28;20674;-63
2024/03/02 05:33:49;;;;;;;12.43;10.97;;;;;;;;;;5016626;28;20247;-62
2024/03/02 05:36:17;;;;;;;13.90;10.80;;;;;;;;;;5030359;28;20206;-63
2024/03/02 05:38:44;;;;;;;12.93;11.10;;;;;;;;;;5031526;28;20307;-63
2024/03/02 05:41:11;;;;;;;13.20;10.43;;;;;;;;;;5033163;28;20263;-62
2024/03/02 05:43:40;;;;;;;14.47;11.40;;;;;;;;;;5034676;28;20737;-63
2024/03/02 05:46:07;;;;;;;15.90;13.43;;;;;;;;;;5032650;28;20268;-63
2024/03/02 05:48:34;;;;;;;16.10;13.27;;;;;;;;;;5032980;28;20220;-63
2024/03/02 05:51:02;;;;;;;19.77;12.90;;;;;;;;;;5032920;28;20619;-62
2024/03/02 05:53:29;;;;;;;18.80;13.37;;;;;;;;;;5033380;28;20205;-63
2024/03/02 05:55:56;;;;;;;17.33;13.60;;;;;;;;;;5033313;28;20210;-63
2024/03/02 05:58:37;;;;;;;20.20;13.87;;;;;;;;;;5024488;28;20242;-63
2024/03/02 06:01:05;;;;;;;18.27;14.40;;;;;;;;;;5032051;28;20296;-63
2024/03/02 06:03:33;;;;;;;16.20;13.00;;;;;;;;;;5032477;28;20206;-63
2024/03/02 06:06:00;;;;;;;12.33;10.73;;;;;;;;;;5032234;28;20621;-63
2024/03/02 06:08:27;;;;;;;15.10;11.43;;;;;;;;;;5032957;28;20279;-62
2024/03/02 06:10:56;;;;;;;16.93;12.23;;;;;;;;;;5032550;28;20289;-62
2024/03/02 06:13:23;;;;;;;12.73;10.40;;;;;;;;;;5031136;28;20200;-62
2024/03/02 06:15:50;;;;;;;16.63;11.43;;;;;;;;;;5030684;28;20203;-63
2024/03/02 06:18:19;;;;;;;18.13;12.33;;;;;;;;;;5032261;28;20224;-62
2024/03/02 06:20:47;;;;;;;15.57;11.83;;;;;;;;;;5029579;28;20196;-63
2024/03/02 06:23:14;;;;;;;12.67;10.83;;;5.30;99.90;;;;;;5029055;28;20205;-63
2024/03/02 06:25:41;;;;;;;15.43;11.53;;;5.30;99.90;;;;;;5026361;28;20247;-63
2024/03/02 06:28:08;;;;;;;17.27;11.87;;;5.20;99.90;;;;;;5032035;28;20212;-62
2024/03/02 06:30:35;;;;;;;13.23;11.17;;;5.30;99.90;;;;;;5032335;28;20216;-62
2024/03/02 06:33:03;;;;;;;13.63;11.03;;;5.40;99.90;;;;;;5030195;28;20195;-63
2024/03/02 06:35:32;;;;;;;13.10;10.73;;;5.40;99.90;;;;;;5027882;28;20207;-62
2024/03/02 06:37:59;;;;;;;12.83;10.57;;;5.30;99.90;;;;;;5026274;28;20200;-63
2024/03/02 06:40:27;;;;;;;14.40;11.20;;;;;;;;;;5028396;28;20192;-63
2024/03/02 06:42:54;;;;;;;10.70;8.83;;;;;;;;;;5031770;28;20194;-63
2024/03/02 06:45:22;;;;;;;9.20;7.97;;;;;;;;;;5032744;28;20214;-63
2024/03/02 06:47:49;;;;;;;9.93;8.90;;;;;;;;;;5031343;28;20253;-62
2024/03/02 06:50:17;;;;;;;11.97;9.70;;;;;;;;;;5031981;28;20223;-63
2024/03/02 06:52:45;;;;;;;12.63;11.03;;;;;;;;;;5032009;28;20569;-62
2024/03/02 06:55:13;;;;;;;12.63;9.73;;;;;;;;;;5031236;28;20206;-63
2024/03/02 06:57:40;;;;;;;12.57;11.27;;;5.40;99.90;;;;;;5030831;28;20213;-64
2024/03/02 07:00:08;;;;;;;15.10;12.33;;;5.60;99.90;;;;;;5022299;28;20216;-62
2024/03/02 07:02:38;;;;;;;12.50;11.13;;;5.60;99.90;;;;;;5030640;28;20204;-62
2024/03/02 07:05:07;;;;;;;13.30;11.17;;;;;;;;;;5027857;28;20208;-63
2024/03/02 07:07:34;;;;;;;11.93;10.67;;;5.60;99.90;;;;;;5033852;28;20200;-63
2024/03/02 07:10:03;;;;;;;16.80;10.37;;;;;;;;;;5030789;28;20294;-63
2024/03/02 07:12:31;;;;;;;11.97;9.97;;;;;;;;;;5031761;28;20199;-62
2024/03/02 07:15:18;;;;;;;11.73;10.13;;;;;;;;;;5031208;28;20208;-63
2024/03/02 07:17:46;;;;;;;11.97;9.70;;;;;;;;;;5030853;28;20271;-63
2024/03/02 07:20:13;;;;;;;12.53;10.87;;;;;;;;;;5030583;28;20216;-63
2024/03/02 07:22:40;;;;;;;16.10;11.47;;;;;;;;;;5028740;28;20203;-63
2024/03/02 07:25:09;;;;;;;13.60;11.10;;;;;;;;;;5031892;28;20258;-63
2024/03/02 07:27:41;;;;;;;12.40;10.80;;;;;;;;;;5013179;28;20200;-63
2024/03/02 07:30:08;;;;;;;12.00;10.43;;;;;;;;;;5029863;28;20224;-62
2024/03/02 07:32:41;;;;;;;12.13;9.87;;;;;;;;;;5033271;28;20254;-62
2024/03/02 07:35:08;;;;;;;11.37;9.20;;;;;;;;;;5035799;28;20226;-62
2024/03/02 07:37:39;;;;;;;10.37;9.27;;;;;;;;;;5021080;28;20198;-68
2024/03/02 07:40:11;;;;;;;14.30;10.77;;;;;;;;;;5030856;28;20282;-66
2024/03/02 07:42:40;;;;;;;9.93;8.93;;;;;;;;;;5018223;28;20204;-66
2024/03/02 07:45:07;;;;;;;13.03;10.60;;;;;;;;;;5022295;28;20286;-66
2024/03/02 07:47:39;;;;;;;10.57;9.37;;;;;;;;;;5028146;28;20251;-70
2024/03/02 07:50:07;;;;;;;14.07;10.30;;;;;;;;;;5027181;28;20260;-60
2024/03/02 07:52:34;;;;;;;11.13;9.93;;;;;;;;;;5023173;28;20234;-60
2024/03/02 07:55:01;;;;;;;9.83;7.63;;;;;;;;;;5024789;28;20199;-60
2024/03/02 07:57:28;;;;;;;9.50;7.77;;;6.60;99.90;;;;;;5022851;28;20232;-60
2024/03/02 07:59:59;;;;;;;7.90;7.10;;;;;;;;;;5025422;28;20224;-60
2024/03/02 08:02:26;;;;;;;7.20;6.43;;;;;;;;;;5021988;28;20201;-60
2024/03/02 08:04:54;;;;;;;10.20;7.33;;;;;;;;;;5021231;28;20660;-60
2024/03/02 08:07:21;;;;;;;9.07;8.00;;;;;;;;;;5024038;28;20207;-59
2024/03/02 08:09:48;;;;;;;10.37;7.87;;;;;;;;;;5029234;28;20290;-60
2024/03/02 08:12:16;;;;;;;9.30;7.53;;;;;;;;;;5029430;28;21984;-60
2024/03/02 08:14:43;;;;;;;8.40;7.47;;;;;;;;;;5024278;28;20635;-60
2024/03/02 08:17:11;;;;;;;8.57;7.20;;;;;;;;;;5037892;28;20196;-59
2024/03/02 08:19:39;;;;;;;8.00;7.30;;;;;;;;;;5030114;28;20219;-60
2024/03/02 08:22:06;;;;;;;9.23;8.33;;;;;;;;;;5028374;28;20267;-60
2024/03/02 08:24:34;;;;;;;8.47;7.57;;;;;;;;;;5030523;28;20256;-60
2024/03/02 08:27:01;;;;;;;11.03;8.70;;;;;;;;;;5025614;28;20211;-59
2024/03/02 08:29:28;;;;;;;13.27;9.10;;;;;;;;;;5031795;28;20750;-60
2024/03/02 08:31:56;;;;;;;9.63;8.57;;;;;;;;;;5038414;28;20198;-59
2024/03/02 08:34:24;;;;;;;10.77;8.33;;;;;;;;;;5025974;28;20264;-60
2024/03/02 08:36:52;;;;;;;8.07;7.20;;;;;;;;;;5046493;28;20202;-60
2024/03/02 08:39:20;;;;;;;7.77;6.97;;;;;;;;;;5032703;28;20647;-60
2024/03/02 08:41:47;;;;;;;8.07;7.20;;;;;;;;;;5025666;28;20591;-60
2024/03/02 08:44:15;;;;;;;9.20;7.40;;;;;;;;;;5025421;28;20194;-60
2024/03/02 08:46:42;;;;;;;7.93;7.17;;;;;;;;;;5038885;28;20687;-60
2024/03/02 08:49:10;;;;;;;8.50;7.13;;;;;;;;;;5024999;28;20274;-60
2024/03/02 08:51:38;;;;;;;6.43;5.93;;;;;;;;;;5024932;28;20228;-60
2024/03/02 08:54:06;;;;;;;6.60;5.67;;;8.20;99.90;;;;;;5025096;28;20196;-59
2024/03/02 08:56:33;;;;;;;6.03;5.43;;;;;;;;;;5030434;28;20204;-60
2024/03/02 08:59:00;;;;;;;7.17;6.17;;;;;;;;;;5023566;28;20279;-60
2024/03/02 09:01:28;;;;;;;8.10;6.20;;;;;;;;;;5048222;28;20199;-60
2024/03/02 09:03:55;;;;;;;5.63;5.10;;;;;;;;;;5021306;28;20287;-60
2024/03/02 09:06:22;;;;;;;5.43;5.03;;;;;;;;;;5047493;28;20256;-60
2024/03/02 09:08:51;;;;;;;5.67;5.27;;;;;;;;;;5034050;28;20276;-60
2024/03/02 09:11:19;;;;;;;9.00;5.80;;;;;;;;;;5024627;28;20231;-60
2024/03/02 09:13:46;;;;;;;4.87;4.47;;;;;;;;;;5022785;28;20210;-60
2024/03/02 09:16:13;;;;;;;4.23;3.93;;;;;;;;;;5034530;28;20219;-60
2024/03/02 09:18:41;;;;;;;4.00;3.07;;;;;;;;;;5041069;28;20713;-60
2024/03/02 09:21:08;;;;;;;3.60;3.33;;;;;;;;;;5031663;28;20433;-68
2024/03/02 09:23:36;;;;;;;3.80;3.50;;;;;;;;;;5032259;28;20669;-68
2024/03/02 09:26:04;;;;;;;3.83;3.63;;;;;;;;;;5022737;28;20260;-68
2024/03/02 09:28:32;;;;;;;4.23;3.87;;;;;;;;;;5024465;28;20650;-68
2024/03/02 09:30:59;;;;;;;4.20;3.97;;;;;;;;;;5029457;28;20221;-67
2024/03/02 09:33:26;;;;;;;3.87;3.67;;;;;;;;;;5020269;28;20207;-67
2024/03/02 09:35:53;;;;;;;5.60;5.20;;;;;;;;;;5036548;28;20226;-68
2024/03/02 09:38:20;;;;;;;5.50;5.03;;;;;;;;;;5041049;28;20230;-69
2024/03/02 09:40:48;;;;;;;5.13;3.90;;;;;;;;;;5032627;28;20205;-69
2024/03/02 09:43:16;;;;;;;5.83;4.47;;;;;;;;;;5035886;28;20257;-69
2024/03/02 09:45:44;;;;;;;3.80;3.60;;;;;;;;;;5032539;28;20214;-70
2024/03/02 09:48:11;;;;;;;3.23;3.03;;;;;;;;;;5033222;28;20209;-70
2024/03/02 09:50:38;;;;;;;3.37;3.07;;;;;;;;;;5032574;28;20283;-68
2024/03/02 09:53:06;;;;;;;3.13;2.93;;;;;;;;;;5029619;28;20199;-68
2024/03/02 09:55:33;;;;;;;2.90;2.70;;;;;;;;;;5024508;28;20260;-65
2024/03/02 09:58:00;;;;;;;2.37;2.27;;;;;;;;;;5033175;28;20260;-67
2024/03/02 10:00:29;;;;;;;2.40;2.00;;;;;;;;;;5033702;28;20658;-68
2024/03/02 10:02:58;;;;;;;2.43;2.23;;;;;;;;;;5031094;28;20670;-68
2024/03/02 10:05:26;;;;;;;2.97;2.77;;;;;;;;;;5032414;28;20294;-69
2024/03/02 10:08:00;;;;;;;2.33;2.23;;;;;;;;;;5033047;28;20234;-68
2024/03/02 10:10:35;;;;;;;2.40;2.30;;;;;;;;;;5032921;28;20257;-71
2024/03/02 10:13:06;;;;;;;3.13;2.70;;;;;;;;;;5033623;28;20195;-67
2024/03/02 10:15:34;;;;;;;2.17;2.07;;;;;;;;;;5030622;28;20199;-69
2024/03/02 10:18:02;;;;;;;2.00;2.00;;;;;;;;;;5025522;28;20252;-70
2024/03/02 10:20:29;;;;;;;2.07;1.97;;;;;;;;;;5033102;28;20257;-69
2024/03/02 10:22:56;;;;;;;1.67;1.57;;;;;;;;;;5032454;28;20198;-71
2024/03/02 10:25:31;;;;;;;1.30;1.30;;;;;;;;;;5031931;28;20249;-65
2024/03/02 10:27:59;;;;;;;1.77;1.67;;;;;;;;;;5025225;28;20237;-68
2024/03/02 10:30:27;;;;;;;1.37;1.27;;;;;;;;;;5032246;28;20258;-69
2024/03/02 10:32:56;;;;;;;2.73;1.20;;;;;;;;;;5024634;28;20202;-69
2024/03/02 10:35:25;;;;;;;2.20;2.00;;;;;;;;;;5032068;28;20203;-66
2024/03/02 10:37:52;;;;;;;3.03;1.37;;;;;;;;;;5032905;28;20293;-69
2024/03/02 10:40:20;;;;;;;1.73;1.70;;;;;;;;;;5031606;28;20264;-69
2024/03/02 10:42:47;;;;;;;1.57;1.47;;;;;;;;;;5029384;28;20201;-65
2024/03/02 10:45:16;;;;;;;2.00;1.90;;;;;;;;;;5031952;28;20203;-67
2024/03/02 10:47:44;;;;;;;2.00;1.53;;;;;;;;;;5032584;28;20209;-67
2024/03/02 10:50:13;;;;;;;1.80;1.80;;;;;;;;;;5031881;28;20320;-67
2024/03/02 10:52:42;;;;;;;1.80;1.70;;;;;;;;;;5032399;28;20330;-66
2024/03/02 10:55:12;;;;;;;1.93;1.83;;;;;;;;;;5031774;28;20673;-70
2024/03/02 10:57:42;;;;;;;1.50;1.40;;;;;;;;;;5033622;28;20273;-69
2024/03/02 11:00:14;;;;;;;1.30;1.30;;;;;;;;;;5046247;28;20785;-69
2024/03/02 11:02:44;;;;;;;2.70;1.37;;;;;;;;;;5028523;28;20221;-66
2024/03/02 11:05:12;;;;;;;1.70;1.60;;;;;;;;;;5030300;28;20200;-67
2024/03/02 11:07:43;;;;;;;6.30;1.20;;;;;;;;;;5052106;28;20201;-68
2024/03/02 11:10:11;;;;;;;1.33;1.23;;;;;;;;;;5050092;28;20228;-66
2024/03/02 11:12:40;;;;;;;3.40;1.63;;;;;;;;;;5023959;28;20258;-70
2024/03/02 11:15:11;;;;;;;1.17;1.10;;;;;;;;;;5032816;28;20205;-70
2024/03/02 11:17:43;;;;;;;1.47;1.03;;;;;;;;;;5031998;28;20252;-66
2024/03/02 11:20:11;;;;;;;1.90;0.97;;;;;;;;;;5030534;28;20229;-65
2024/03/02 11:22:39;;;;;;;0.90;0.90;;;;;;;;;;5024173;28;20276;-61
2024/03/02 11:25:10;;;;;;;1.63;1.17;;;;;;;;;;5031287;28;20204;-61
2024/03/02 11:27:55;;;;;;;1.03;1.03;;;;;;;;;;5031958;28;20722;-61
2024/03/02 11:30:38;;;;;;;0.93;0.60;;;;;;;;;;5030970;28;20204;-61
2024/03/02 11:33:07;;;;;;;0.90;0.90;;;;;;;;;;5028234;28;20225;-61
2024/03/02 11:35:35;;;;;;;2.40;1.40;;;;;;;;;;5031196;28;20202;-60
2024/03/02 11:38:04;;;;;;;1.00;0.90;;;;;;;;;;5031564;28;20698;-61
2024/03/02 11:40:31;;;;;;;0.70;0.70;;;;;;;;;;5031933;28;20268;-61
2024/03/02 11:43:01;;;;;;;0.60;0.60;;;;;;;;;;5031790;28;20195;-61
2024/03/02 11:45:28;;;;;;;0.87;0.87;;;;;;;;;;5025701;28;20253;-61
2024/03/02 11:47:56;;;;;;;0.97;0.97;;;;;;;;;;5031666;28;20252;-67
2024/03/02 11:50:30;;;;;;;1.57;0.67;;;;;;;;;;5030570;28;20208;-63
2024/03/02 11:52:58;;;;;;;0.60;0.60;;;;;;;;;;5023324;28;20258;-67
2024/03/02 11:55:27;;;;;;;0.37;0.30;;;;;;;;;;5031136;28;20208;-70
2024/03/02 11:57:54;;;;;;;2.37;0.40;;;;;;;;;;5038875;28;20213;-66
2024/03/02 12:00:22;;;;;;;0.30;0.30;;;;;;;;;;5034484;28;20205;-66
2024/03/02 12:03:01;;;;;;;0.80;0.40;;;;;;;;;;5034877;28;20202;-67
2024/03/02 12:05:28;;;;;;;0.60;0.60;;;;;;;;;;5030901;28;20198;-66
2024/03/02 12:07:58;;;;;;;0.60;0.60;;;;;;;;;;5034062;28;20208;-67
2024/03/02 12:10:27;;;;;;;0.50;0.50;;;;;;;;;;5035750;28;20206;-68
2024/03/02 12:12:58;;;;;;;0.57;0.57;;;;;;;;;;5035135;28;20201;-67
2024/03/02 12:15:27;;;;;;;0.53;0.53;;;;;;;;;;5034187;28;20210;-66
2024/03/02 12:17:56;;;;;;;1.23;0.63;;;;;;;;;;5034812;28;20683;-65
2024/03/02 12:20:24;;;;;;;2.60;1.97;;;;;;;;;;5034982;28;20366;-65
2024/03/02 12:22:53;;;;;;;0.70;0.70;;;;;;;;;;5035036;28;20213;-69
2024/03/02 12:25:21;;;;;;;0.70;0.60;;;;;;;;;;5034521;28;20245;-66
2024/03/02 12:27:51;;;;;;;2.43;0.60;;;;;;;;;;5035131;28;20202;-66
2024/03/02 12:30:18;;;;;;;0.60;0.60;;;;;;;;;;5034733;28;20219;-64
2024/03/02 12:32:46;;;;;;;0.97;0.50;;;;;;;;;;5034533;28;20222;-66
2024/03/02 12:35:15;;;;;;;0.60;0.50;;;;;;;;;;5027817;28;20257;-68
2024/03/02 12:37:46;;;;;;;1.47;0.97;;;;;;;;;;5031044;28;20202;-68
2024/03/02 12:40:13;;;;;;;0.87;0.87;;;;;;;;;;5034634;28;20652;-70
2024/03/02 12:42:44;;;;;;;0.90;0.90;;;;;;;;;;5034581;28;20202;-72
2024/03/02 12:45:13;;;;;;;0.83;0.60;;;;;;;;;;5033875;28;20205;-71
2024/03/02 12:47:41;;;;;;;0.60;0.60;;;;;;;;;;5034805;28;20203;-70
2024/03/02 12:50:09;;;;;;;1.77;1.67;;;;;;;;;;5034701;28;20935;-69
2024/03/02 12:52:36;;;;;;;3.40;3.17;;;;;;;;;;5033711;28;20226;-68
2024/03/02 12:55:05;;;;;;;4.20;3.80;;;;;;;;;;5035253;28;20249;-63
2024/03/02 12:57:36;;;;;;;4.57;4.17;;;;;;;;;;5043232;28;20197;-61
2024/03/02 13:00:08;;;;;;;2.87;2.77;;;;;;;;;;5032741;28;20229;-63
2024/03/02 13:02:42;;;;;;;1.47;1.37;;;;;;;;;;5032165;28;20191;-65
2024/03/02 13:05:11;;;;;;;2.80;1.30;;;;;;;;;;5019406;28;20610;-68
2024/03/02 13:07:42;;;;;;;1.60;1.50;;;;;;;;;;5040765;28;20194;-68
2024/03/02 13:10:09;;;;;;;1.97;1.87;;;;;;;;;;5035383;28;20745;-67
2024/03/02 13:12:39;;;;;;;2.37;2.07;;;;;;;;;;5028801;28;20215;-66
2024/03/02 13:15:06;;;;;;;2.00;1.90;;;;;;;;;;5031567;28;20230;-69
2024/03/02 13:17:41;;;;;;;3.10;2.80;;;;;;;;;;5033766;28;20260;-69
2024/03/02 13:20:10;;;;;;;2.23;2.13;;;;;;;;;;5031758;28;20233;-64
2024/03/02 13:22:38;;;;;;;3.03;2.30;;;;;;;;;;5033538;28;20220;-61
2024/03/02 13:25:05;;;;;;;2.63;1.93;;;;;;;;;;5033148;28;20195;-63
2024/03/02 13:27:33;;;;;;;1.77;1.00;;;;;;;;;;5033545;28;20682;-64
2024/03/02 13:30:00;;;;;;;2.10;1.10;;;;;;;;;;5034110;28;20782;-67
2024/03/02 13:32:28;;;;;;;0.90;0.90;;;;;;;;;;5033734;28;20226;-69
2024/03/02 13:34:57;;;;;;;1.40;1.40;;;;;;;;;;5025001;28;20195;-69
2024/03/02 13:37:27;;;;;;;1.80;1.70;;;;;;;;;;5034170;28;20206;-69
2024/03/02 13:39:55;;;;;;;1.77;1.67;;;;;;;;;;5033866;28;20250;-65
2024/03/02 13:42:23;;;;;;;3.17;2.93;;;;;;;;;;5035124;28;20198;-66
2024/03/02 13:44:52;;;;;;;2.97;2.77;;;;;;;;;;5037195;28;20222;-64
2024/03/02 13:47:20;;;;;;;3.10;2.87;;;;;;;;;;5033624;28;20201;-62
2024/03/02 13:49:48;;;;;;;5.67;5.07;;;;;;;;;;5033137;28;20241;-66
2024/03/02 13:52:20;;;;;;;9.13;8.23;;;;;;;;;;5032912;28;20683;-65
2024/03/02 13:54:48;;;;;;;2.30;2.10;;;;;;;;;;5030076;28;20207;-65
2024/03/02 13:57:19;;;;;;;1.27;1.27;;;;;;;;;;5030854;28;20235;-64
2024/03/02 13:59:47;;;;;;;0.80;0.80;;;;;;;;;;5030012;28;20238;-64
2024/03/02 14:02:15;;;;;;;3.60;3.30;;;;;;;;;;5026008;28;20194;-65
2024/03/02 14:04:43;;;;;;;6.57;5.50;;;;;;;;;;5025042;28;20201;-64
2024/03/02 14:07:11;;;;;;;1.40;1.30;;;;;;;;;;5034547;28;20308;-65
2024/03/02 14:09:41;;;;;;;1.50;0.97;;;;;;;;;;5031094;28;20732;-65
2024/03/02 14:12:09;;;;;;;2.03;1.93;;;;;;;;;;5025401;28;20224;-64
2024/03/02 14:14:37;;;;;;;0.97;0.97;;;;;;;;;;5030321;28;20810;-64
2024/03/02 14:17:06;;;;;;;1.07;1.07;;;;;;;;;;5033165;28;20285;-64
2024/03/02 14:19:33;;;;;;;0.83;0.83;;;;;;;;;;5032519;28;20702;-64
2024/03/02 14:22:01;;;;;;;1.50;0.87;;;;;;;;;;5033154;28;20234;-64
2024/03/02 14:24:29;;;;;;;1.27;1.23;;;;;;;;;;5032422;28;20576;-64
2024/03/02 14:27:01;;;;;;;1.63;1.53;;;;;;;;;;5033045;28;20800;-64